createdAt,value
2018-11-07T00:00:32.040Z,94761.00
2018-11-07T00:03:03.088Z,94765.00
2018-11-07T00:05:34.275Z,94773.00
2018-11-07T00:08:05.472Z,94775.00
2018-11-07T00:10:36.508Z,94777.00
2018-11-07T00:13:07.840Z,94780.00
2018-11-07T00:15:38.988Z,94773.00
2018-11-07T00:18:10.103Z,94785.00
2018-11-07T00:20:41.192Z,94793.00
2018-11-07T00:23:12.382Z,94791.00
2018-11-07T00:25:43.504Z,94800.00
2018-11-07T00:28:14.580Z,94794.00
2018-11-07T00:30:45.883Z,94795.00
2018-11-07T00:33:16.939Z,94800.00
2018-11-07T00:35:48.081Z,94804.00
2018-11-07T00:38:19.144Z,94809.00
2018-11-07T00:40:50.539Z,94814.00
2018-11-07T00:43:21.565Z,94812.00
2018-11-07T00:45:52.763Z,94814.00
2018-11-07T00:48:23.800Z,94813.00
2018-11-07T00:50:55.581Z,94819.00
2018-11-07T00:53:26.660Z,94815.00
2018-11-07T00:55:57.719Z,94823.00
2018-11-07T00:58:28.743Z,94826.00
2018-11-07T01:00:59.931Z,94817.00
2018-11-07T01:03:31.041Z,94813.00
2018-11-07T01:06:02.460Z,94814.00
2018-11-07T01:08:33.480Z,94809.00
2018-11-07T01:11:04.664Z,94805.00
2018-11-07T01:13:36.122Z,94814.00
2018-11-07T01:16:08.019Z,94815.00
2018-11-07T01:18:39.100Z,94814.00
2018-11-07T01:21:10.194Z,94815.00
2018-11-07T01:23:41.231Z,94817.00
2018-11-07T01:26:12.382Z,94817.00
2018-11-07T01:28:43.526Z,94815.00
2018-11-07T01:31:14.656Z,94812.00
2018-11-07T01:33:45.672Z,94808.00
2018-11-07T01:36:17.091Z,94808.00
2018-11-07T01:38:48.084Z,94808.00
2018-11-07T01:41:19.106Z,94806.00
2018-11-07T01:43:50.091Z,94803.00
2018-11-07T01:46:21.130Z,94802.00
2018-11-07T01:48:52.174Z,94796.00
2018-11-07T01:51:23.197Z,94795.00
2018-11-07T01:53:54.201Z,94795.00
2018-11-07T01:56:25.272Z,94795.00
2018-11-07T01:58:56.260Z,94790.00
2018-11-07T02:01:27.547Z,94793.00
2018-11-07T02:03:58.592Z,94787.00
2018-11-07T02:06:29.660Z,94792.00
2018-11-07T02:09:00.627Z,94789.00
2018-11-07T02:11:31.647Z,94787.00
2018-11-07T02:14:02.623Z,94793.00
2018-11-07T02:16:33.615Z,94785.00
2018-11-07T02:19:04.590Z,94794.00
2018-11-07T02:21:35.499Z,94782.00
2018-11-07T02:24:09.680Z,94786.00
2018-11-07T02:26:40.587Z,94791.00
2018-11-07T02:29:15.639Z,94787.00
2018-11-07T02:31:47.468Z,94785.00
2018-11-07T02:34:18.423Z,94779.00
2018-11-07T02:36:49.411Z,94780.00
2018-11-07T02:39:20.284Z,94782.00
2018-11-07T02:41:51.261Z,94786.00
2018-11-07T02:44:22.015Z,94784.00
2018-11-07T02:46:52.928Z,94791.00
2018-11-07T02:49:23.980Z,94793.00
2018-11-07T02:51:54.892Z,94789.00
2018-11-07T02:54:25.663Z,94787.00
2018-11-07T02:56:56.907Z,94791.00
2018-11-07T02:59:27.764Z,94791.00
2018-11-07T03:01:58.680Z,94795.00
2018-11-07T03:04:29.588Z,94801.00
2018-11-07T03:07:00.403Z,94801.00
2018-11-07T03:09:31.285Z,94806.00
2018-11-07T03:12:02.211Z,94799.00
2018-11-07T03:14:33.028Z,94802.00
2018-11-07T03:17:04.092Z,94796.00
2018-11-07T03:19:35.276Z,94798.00
2018-11-07T03:22:06.766Z,94801.00
2018-11-07T03:24:37.752Z,94799.00
2018-11-07T03:27:08.803Z,94800.00
2018-11-07T03:29:39.753Z,94798.00
2018-11-07T03:32:10.788Z,94801.00
2018-11-07T03:34:41.768Z,94801.00
2018-11-07T03:37:12.844Z,94803.00
2018-11-07T03:39:43.927Z,94799.00
2018-11-07T03:42:14.987Z,94803.00
2018-11-07T03:44:45.922Z,94795.00
2018-11-07T03:47:17.191Z,94794.00
2018-11-07T03:49:48.354Z,94792.00
2018-11-07T03:52:19.415Z,94792.00
2018-11-07T03:54:50.646Z,94792.00
2018-11-07T03:57:21.662Z,94788.00
2018-11-07T03:59:52.627Z,94797.00
2018-11-07T04:02:23.787Z,94787.00
2018-11-07T04:04:54.902Z,94790.00
2018-11-07T04:07:25.908Z,94786.00
2018-11-07T04:09:56.894Z,94792.00
2018-11-07T04:12:27.970Z,94794.00
2018-11-07T04:14:58.944Z,94791.00
2018-11-07T04:17:29.864Z,94789.00
2018-11-07T04:20:00.679Z,94797.00
2018-11-07T04:22:31.579Z,94796.00
2018-11-07T04:25:02.792Z,94806.00
2018-11-07T04:27:33.700Z,94807.00
2018-11-07T04:30:05.873Z,94799.00
2018-11-07T04:32:36.768Z,94795.00
2018-11-07T04:35:09.593Z,94790.00
2018-11-07T04:37:40.891Z,94798.00
2018-11-07T04:40:13.032Z,94796.00
2018-11-07T04:42:43.969Z,94797.00
2018-11-07T04:45:14.808Z,94794.00
2018-11-07T04:47:45.732Z,94791.00
2018-11-07T04:50:16.592Z,94787.00
2018-11-07T04:52:47.532Z,94790.00
2018-11-07T04:55:18.408Z,94792.00
2018-11-07T04:57:49.312Z,94792.00
2018-11-07T05:00:20.337Z,94787.00
2018-11-07T05:02:51.112Z,94788.00
2018-11-07T05:05:21.988Z,94784.00
2018-11-07T05:07:52.983Z,94785.00
2018-11-07T05:10:23.853Z,94790.00
2018-11-07T05:12:54.793Z,94794.00
2018-11-07T05:15:25.617Z,94790.00
2018-11-07T05:17:56.585Z,94790.00
2018-11-07T05:20:27.652Z,94794.00
2018-11-07T05:22:58.712Z,94790.00
2018-11-07T05:25:29.778Z,94791.00
2018-11-07T05:28:00.736Z,94796.00
2018-11-07T05:30:32.005Z,94806.00
2018-11-07T05:33:02.885Z,94806.00
2018-11-07T05:35:33.817Z,94808.00
2018-11-07T05:38:04.785Z,94806.00
2018-11-07T05:40:35.693Z,94811.00
2018-11-07T05:43:06.873Z,94811.00
2018-11-07T05:45:38.164Z,94817.00
2018-11-07T05:48:09.105Z,94818.00
2018-11-07T05:50:40.272Z,94814.00
2018-11-07T05:53:11.140Z,94811.00
2018-11-07T05:55:41.973Z,94805.00
2018-11-07T05:58:12.916Z,94819.00
2018-11-07T06:00:43.812Z,94819.00
2018-11-07T06:03:14.692Z,94824.00
2018-11-07T06:05:46.744Z,94816.00
2018-11-07T06:08:17.740Z,94821.00
2018-11-07T06:10:48.653Z,94829.00
2018-11-07T06:13:19.632Z,94825.00
2018-11-07T06:15:50.493Z,94822.00
2018-11-07T06:18:21.573Z,94828.00
2018-11-07T06:20:52.535Z,94826.00
2018-11-07T06:23:23.553Z,94835.00
2018-11-07T06:25:54.532Z,94829.00
2018-11-07T06:28:25.633Z,94830.00
2018-11-07T06:30:56.640Z,94834.00
2018-11-07T06:33:27.664Z,94848.00
2018-11-07T06:35:58.669Z,94838.00
2018-11-07T06:38:29.733Z,94840.00
2018-11-07T06:41:00.876Z,94833.00
2018-11-07T06:43:32.172Z,94845.00
2018-11-07T06:46:03.303Z,94843.00
2018-11-07T06:48:34.512Z,94850.00
2018-11-07T06:51:05.685Z,94855.00
2018-11-07T06:53:36.720Z,94853.00
2018-11-07T06:56:07.797Z,94860.00
2018-11-07T06:58:38.833Z,94849.00
2018-11-07T07:01:09.913Z,94849.00
2018-11-07T07:03:41.146Z,94853.00
2018-11-07T07:06:12.233Z,94846.00
2018-11-07T07:08:43.293Z,94846.00
2018-11-07T07:11:14.336Z,94855.00
2018-11-07T07:13:45.337Z,94850.00
2018-11-07T07:16:16.361Z,94849.00
2018-11-07T07:18:47.513Z,94838.00
2018-11-07T07:21:18.455Z,94845.00
2018-11-07T07:23:49.549Z,94847.00
2018-11-07T07:26:20.577Z,94838.00
2018-11-07T07:28:51.693Z,94836.00
2018-11-07T07:31:22.668Z,94844.00
2018-11-07T07:33:53.913Z,94844.00
2018-11-07T07:36:24.972Z,94846.00
2018-11-07T07:38:56.053Z,94842.00
2018-11-07T07:41:27.665Z,94840.00
2018-11-07T07:43:58.851Z,94841.00
2018-11-07T07:46:29.873Z,94835.00
2018-11-07T07:49:01.068Z,94831.00
2018-11-07T07:51:32.114Z,94837.00
2018-11-07T07:54:03.216Z,94836.00
2018-11-07T07:56:34.205Z,94828.00
2018-11-07T07:59:05.453Z,94827.00
2018-11-07T08:01:36.433Z,94819.00
2018-11-07T08:04:07.706Z,94820.00
2018-11-07T08:06:39.285Z,94823.00
2018-11-07T08:09:13.192Z,94827.00
2018-11-07T08:11:44.257Z,94830.00
2018-11-07T08:14:15.272Z,94829.00
2018-11-07T08:16:46.351Z,94835.00
2018-11-07T08:19:17.453Z,94823.00
2018-11-07T08:21:48.434Z,94818.00
2018-11-07T08:24:19.501Z,94818.00
2018-11-07T08:26:50.553Z,94823.00
2018-11-07T08:29:21.614Z,94822.00
2018-11-07T08:31:52.613Z,94825.00
2018-11-07T08:34:23.656Z,94814.00
2018-11-07T08:36:54.637Z,94821.00
2018-11-07T08:39:25.964Z,94832.00
2018-11-07T08:41:56.940Z,94830.00
2018-11-07T08:44:28.293Z,94825.00
2018-11-07T08:46:59.313Z,94827.00
2018-11-07T08:49:30.405Z,94822.00
2018-11-07T08:52:01.473Z,94825.00
2018-11-07T08:54:32.573Z,94819.00
2018-11-07T08:57:03.605Z,94816.00
2018-11-07T08:59:35.125Z,94816.00
2018-11-07T09:02:06.303Z,94809.00
2018-11-07T09:04:37.451Z,94812.00
2018-11-07T09:07:08.453Z,94812.00
2018-11-07T09:09:39.528Z,94818.00
2018-11-07T09:12:10.713Z,94819.00
2018-11-07T09:14:41.661Z,94814.00
2018-11-07T09:17:12.597Z,94814.00
2018-11-07T09:19:43.773Z,94816.00
2018-11-07T09:22:14.705Z,94818.00
2018-11-07T09:24:45.741Z,94812.00
2018-11-07T09:27:16.823Z,94813.00
2018-11-07T09:29:47.780Z,94825.00
2018-11-07T09:32:19.499Z,94826.00
2018-11-07T09:34:50.483Z,94812.00
2018-11-07T09:37:21.514Z,94815.00
2018-11-07T09:39:52.520Z,94830.00
2018-11-07T09:42:23.544Z,94826.00
2018-11-07T09:44:54.925Z,94831.00
2018-11-07T09:47:26.232Z,94824.00
2018-11-07T09:49:57.349Z,94832.00
2018-11-07T09:52:28.586Z,94827.00
2018-11-07T09:54:59.606Z,94824.00
2018-11-07T09:57:30.728Z,94824.00
2018-11-07T10:00:01.733Z,94819.00
2018-11-07T10:02:32.940Z,94824.00
2018-11-07T10:05:04.076Z,94822.00
2018-11-07T10:07:34.961Z,94813.00
2018-11-07T10:10:08.928Z,94817.00
2018-11-07T10:12:40.492Z,94818.00
2018-11-07T10:15:12.449Z,94810.00
2018-11-07T10:17:43.442Z,94813.00
2018-11-07T10:20:16.725Z,94807.00
2018-11-07T10:22:48.253Z,94807.00
2018-11-07T10:25:19.538Z,94808.00
2018-11-07T10:27:50.453Z,94799.00
2018-11-07T10:30:22.085Z,94799.00
2018-11-07T10:32:52.988Z,94801.00
2018-11-07T10:35:23.944Z,94793.00
2018-11-07T10:37:55.075Z,94792.00
2018-11-07T10:40:26.131Z,94791.00
2018-11-07T10:42:56.989Z,94805.00
2018-11-07T10:45:27.812Z,94788.00
2018-11-07T10:47:59.288Z,94792.00
2018-11-07T10:50:30.356Z,94784.00
2018-11-07T10:53:01.127Z,94792.00
2018-11-07T10:55:32.053Z,94788.00
2018-11-07T10:58:02.869Z,94788.00
2018-11-07T11:00:38.685Z,94775.00
2018-11-07T11:03:14.597Z,94784.00
2018-11-07T11:05:47.621Z,94779.00
2018-11-07T11:08:18.404Z,94780.00
2018-11-07T11:10:49.260Z,94775.00
2018-11-07T11:13:20.421Z,94779.00
2018-11-07T11:15:51.278Z,94770.00
2018-11-07T11:18:22.133Z,94776.00
2018-11-07T11:20:53.033Z,94763.00
2018-11-07T11:23:24.065Z,94769.00
2018-11-07T11:25:55.015Z,94764.00
2018-11-07T11:28:25.901Z,94771.00
2018-11-07T11:30:56.690Z,94771.00
2018-11-07T11:33:27.460Z,94773.00
2018-11-07T11:35:58.286Z,94776.00
2018-11-07T11:38:32.031Z,94773.00
2018-11-07T11:41:03.088Z,94776.00
2018-11-07T11:43:33.834Z,94773.00
2018-11-07T11:46:04.725Z,94770.00
2018-11-07T11:48:35.590Z,94763.00
2018-11-07T11:51:07.292Z,94769.00
2018-11-07T11:53:38.311Z,94758.00
2018-11-07T11:56:09.152Z,94758.00
2018-11-07T11:58:39.967Z,94761.00
2018-11-07T12:01:10.878Z,94768.00
2018-11-07T12:03:42.593Z,94761.00
2018-11-07T12:06:13.359Z,94760.00
2018-11-07T12:08:44.247Z,94766.00
2018-11-07T12:11:15.073Z,94765.00
2018-11-07T12:13:46.011Z,94761.00
2018-11-07T12:16:16.805Z,94760.00
2018-11-07T12:18:47.677Z,94773.00
2018-11-07T12:21:18.714Z,94768.00
2018-11-07T12:23:49.552Z,94766.00
2018-11-07T12:26:20.456Z,94766.00
2018-11-07T12:28:51.450Z,94768.00
2018-11-07T12:31:22.481Z,94771.00
2018-11-07T12:33:53.506Z,94767.00
2018-11-07T12:36:24.503Z,94769.00
2018-11-07T12:38:55.525Z,94763.00
2018-11-07T12:41:26.569Z,94762.00
2018-11-07T12:43:57.593Z,94769.00
2018-11-07T12:46:28.521Z,94775.00
2018-11-07T12:48:59.533Z,94773.00
2018-11-07T12:51:30.460Z,94765.00
2018-11-07T12:54:01.434Z,94767.00
2018-11-07T12:56:32.777Z,94776.00
2018-11-07T12:59:03.845Z,94781.00
2018-11-07T13:01:34.901Z,94773.00
2018-11-07T13:04:06.298Z,94774.00
2018-11-07T13:06:37.573Z,94774.00
2018-11-07T13:09:11.476Z,94772.00
2018-11-07T13:11:42.436Z,94781.00
2018-11-07T13:14:13.542Z,94784.00
2018-11-07T13:16:44.578Z,94776.00
2018-11-07T13:19:15.590Z,94774.00
2018-11-07T13:21:46.601Z,94777.00
2018-11-07T13:24:17.563Z,94775.00
2018-11-07T13:26:48.489Z,94774.00
2018-11-07T13:29:19.545Z,94786.00
2018-11-07T13:31:50.519Z,94784.00
2018-11-07T13:34:21.578Z,94782.00
2018-11-07T13:36:52.623Z,94784.00
2018-11-07T13:39:23.588Z,94777.00
2018-11-07T13:41:56.173Z,94775.00
2018-11-07T13:44:32.000Z,94767.00
2018-11-07T13:47:22.830Z,94775.00
2018-11-07T13:50:06.369Z,94782.00
2018-11-07T13:52:59.338Z,94784.00
2018-11-07T13:59:08.128Z,94786.00
2018-11-07T14:01:43.930Z,94782.00
2018-11-07T14:04:18.457Z,94781.00
2018-11-07T14:06:49.273Z,94788.00
2018-11-07T14:09:20.207Z,94791.00
2018-11-07T14:11:51.074Z,94787.00
2018-11-07T14:14:24.634Z,94791.00
2018-11-07T14:16:55.588Z,94792.00
2018-11-07T14:19:26.512Z,94790.00
2018-11-07T14:21:58.033Z,94798.00
2018-11-07T14:24:28.835Z,94801.00
2018-11-07T14:26:59.668Z,94797.00
2018-11-07T14:29:30.684Z,94790.00
2018-11-07T14:32:01.638Z,94803.00
2018-11-07T14:34:32.922Z,94801.00
2018-11-07T14:37:03.805Z,94801.00
2018-11-07T14:39:34.846Z,94806.00
2018-11-07T14:42:06.039Z,94803.00
2018-11-07T14:44:37.144Z,94813.00
2018-11-07T14:47:08.369Z,94817.00
2018-11-07T14:49:39.347Z,94819.00
2018-11-07T14:52:10.180Z,94824.00
2018-11-07T14:54:41.097Z,94816.00
2018-11-07T14:57:11.925Z,94821.00
2018-11-07T14:59:42.737Z,94819.00
2018-11-07T15:02:13.593Z,94829.00
2018-11-07T15:04:44.588Z,94823.00
2018-11-07T15:07:15.344Z,94822.00
2018-11-07T15:09:46.206Z,94828.00
2018-11-07T15:12:17.005Z,94828.00
2018-11-07T15:14:47.949Z,94826.00
2018-11-07T15:17:18.984Z,94824.00
2018-11-07T15:19:49.880Z,94829.00
2018-11-07T15:22:21.049Z,94834.00
2018-11-07T15:24:52.186Z,94840.00
2018-11-07T15:35:41.618Z,94836.00
2018-11-07T15:38:14.066Z,94844.00
2018-11-07T15:40:45.157Z,94841.00
2018-11-07T15:43:16.249Z,94850.00
2018-11-07T15:45:47.271Z,94844.00
2018-11-07T15:48:18.383Z,94852.00
2018-11-07T15:50:54.470Z,94855.00
2018-11-07T15:53:25.452Z,94854.00
2018-11-07T15:55:56.576Z,94856.00
2018-11-07T15:58:27.944Z,94860.00
2018-11-07T16:00:59.016Z,94866.00
2018-11-07T16:03:35.177Z,94869.00
2018-11-07T16:06:06.400Z,94879.00
2018-11-07T16:08:37.623Z,94880.00
2018-11-07T16:11:08.984Z,94888.00
2018-11-07T16:13:40.240Z,94885.00
2018-11-07T16:16:11.244Z,94890.00
2018-11-07T16:18:43.136Z,94888.00
2018-11-07T16:21:14.198Z,94882.00
2018-11-07T16:23:45.345Z,94883.00
2018-11-07T16:26:16.456Z,94885.00
2018-11-07T16:28:47.779Z,94898.00
2018-11-07T16:31:18.944Z,94898.00
2018-11-07T16:33:50.145Z,94908.00
2018-11-07T16:36:21.271Z,94910.00
2018-11-07T16:38:52.448Z,94914.00
2018-11-07T16:41:23.715Z,94922.00
2018-11-07T16:43:54.813Z,94927.00
2018-11-07T16:46:25.986Z,94936.00
2018-11-07T16:48:57.191Z,94929.00
2018-11-07T16:51:28.330Z,94936.00
2018-11-07T16:53:59.545Z,94944.00
2018-11-07T16:56:30.737Z,94947.00
2018-11-07T16:59:01.943Z,94953.00
2018-11-07T17:01:33.073Z,94959.00
2018-11-07T17:04:04.142Z,94954.00
2018-11-07T17:06:35.504Z,94960.00
2018-11-07T17:09:08.460Z,94953.00
2018-11-07T17:11:39.941Z,94964.00
2018-11-07T17:14:11.205Z,94971.00
2018-11-07T17:16:42.379Z,94974.00
2018-11-07T17:19:13.719Z,94974.00
2018-11-07T17:21:44.953Z,94977.00
2018-11-07T17:24:16.256Z,94980.00
2018-11-07T17:26:47.440Z,94986.00
2018-11-07T17:29:18.551Z,94988.00
2018-11-07T17:31:49.614Z,94990.00
2018-11-07T17:34:20.805Z,94991.00
2018-11-07T17:36:51.993Z,94984.00
2018-11-07T17:39:23.118Z,94987.00
2018-11-07T17:41:54.214Z,94995.00
2018-11-07T17:44:25.374Z,94991.00
2018-11-07T17:46:56.576Z,94994.00
2018-11-07T17:49:27.790Z,94995.00
2018-11-07T17:51:58.936Z,95002.00
2018-11-07T17:54:30.209Z,95001.00
2018-11-07T17:57:01.616Z,95002.00
2018-11-07T17:59:32.747Z,95006.00
2018-11-07T18:02:04.065Z,95010.00
2018-11-07T18:04:35.236Z,95018.00
2018-11-07T18:07:06.614Z,95011.00
2018-11-07T18:09:37.856Z,95014.00
2018-11-07T18:12:09.176Z,95019.00
2018-11-07T18:14:40.462Z,95025.00
2018-11-07T18:17:12.048Z,95031.00
2018-11-07T18:19:43.676Z,95034.00
2018-11-07T18:22:15.309Z,95029.00
2018-11-07T18:24:47.134Z,95036.00
2018-11-07T18:27:18.894Z,95039.00
2018-11-07T18:29:50.575Z,95033.00
2018-11-07T18:32:22.101Z,95034.00
2018-11-07T18:34:53.687Z,95044.00
2018-11-07T18:37:25.135Z,95047.00
2018-11-07T18:39:56.983Z,95052.00
2018-11-07T18:42:28.628Z,95048.00
2018-11-07T18:45:00.557Z,95051.00
2018-11-07T18:47:32.012Z,95055.00
2018-11-07T18:50:03.663Z,95054.00
2018-11-07T18:52:35.113Z,95054.00
2018-11-07T18:55:08.575Z,95057.00
2018-11-07T18:57:40.197Z,95059.00
2018-11-07T19:00:15.549Z,95061.00
2018-11-07T19:02:47.788Z,95065.00
2018-11-07T19:05:19.637Z,95061.00
2018-11-07T19:07:51.206Z,95066.00
2018-11-07T19:10:23.210Z,95075.00
2018-11-07T19:12:54.808Z,95074.00
2018-11-07T19:15:26.375Z,95077.00
2018-11-07T19:17:57.831Z,95082.00
2018-11-07T19:20:30.113Z,95078.00
2018-11-07T19:23:01.776Z,95076.00
2018-11-07T19:25:33.612Z,95085.00
2018-11-07T19:28:05.168Z,95083.00
2018-11-07T19:30:36.790Z,95081.00
2018-11-07T19:33:08.467Z,95080.00
2018-11-07T19:35:40.173Z,95090.00
2018-11-07T19:38:11.809Z,95089.00
2018-11-07T19:40:43.377Z,95093.00
2018-11-07T19:43:16.433Z,95094.00
2018-11-07T19:45:48.028Z,95099.00
2018-11-07T19:48:19.524Z,95089.00
2018-11-07T19:50:51.904Z,95088.00
2018-11-07T19:53:23.406Z,95096.00
2018-11-07T19:55:55.264Z,95095.00
2018-11-07T19:58:27.801Z,95097.00
2018-11-07T20:00:59.533Z,95098.00
2018-11-07T20:03:31.186Z,95105.00
2018-11-07T20:06:02.911Z,95107.00
2018-11-07T20:08:34.446Z,95110.00
2018-11-07T20:11:06.246Z,95116.00
2018-11-07T20:13:38.233Z,95109.00
2018-11-07T20:16:09.888Z,95125.00
2018-11-07T20:18:42.893Z,95126.00
2018-11-07T20:21:14.804Z,95129.00
2018-11-07T20:23:46.680Z,95129.00
2018-11-07T20:26:18.172Z,95132.00
2018-11-07T20:28:50.181Z,95128.00
2018-11-07T20:31:21.721Z,95137.00
2018-11-07T20:33:53.372Z,95135.00
2018-11-07T20:36:25.266Z,95139.00
2018-11-07T20:38:57.006Z,95145.00
2018-11-07T20:41:29.059Z,95146.00
2018-11-07T20:44:01.368Z,95150.00
2018-11-07T20:46:32.970Z,95150.00
2018-11-07T20:49:04.663Z,95146.00
2018-11-07T20:51:36.261Z,95148.00
2018-11-07T20:54:07.788Z,95149.00
2018-11-07T20:56:39.383Z,95146.00
2018-11-07T20:59:10.896Z,95153.00
2018-11-07T21:01:42.600Z,95151.00
2018-11-07T21:04:14.505Z,95146.00
2018-11-07T21:06:46.111Z,95145.00
2018-11-07T21:09:17.676Z,95147.00
2018-11-07T21:11:49.214Z,95151.00
2018-11-07T21:14:20.764Z,95153.00
2018-11-07T21:16:52.380Z,95155.00
2018-11-07T21:19:23.979Z,95160.00
2018-11-07T21:21:55.505Z,95162.00
2018-11-07T21:24:26.913Z,95163.00
2018-11-07T21:26:58.639Z,95164.00
2018-11-07T21:29:30.205Z,95166.00
2018-11-07T21:32:01.656Z,95164.00
2018-11-07T21:34:33.105Z,95164.00
2018-11-07T21:37:04.653Z,95160.00
2018-11-07T21:39:36.093Z,95162.00
2018-11-07T21:42:07.672Z,95163.00
2018-11-07T21:44:38.952Z,95170.00
2018-11-07T21:47:10.410Z,95167.00
2018-11-07T21:49:41.388Z,95169.00
2018-11-07T21:52:12.680Z,95170.00
2018-11-07T21:54:43.908Z,95178.00
2018-11-07T21:57:15.048Z,95181.00
2018-11-07T21:59:46.274Z,95188.00
2018-11-07T22:02:17.585Z,95187.00
2018-11-07T22:04:48.993Z,95190.00
2018-11-07T22:07:20.413Z,95195.00
2018-11-07T22:09:51.546Z,95201.00
2018-11-07T22:12:22.738Z,95208.00
2018-11-07T22:14:53.787Z,95216.00
2018-11-07T22:17:25.229Z,95212.00
2018-11-07T22:19:56.279Z,95213.00
2018-11-07T22:22:27.413Z,95213.00
2018-11-07T22:24:58.509Z,95218.00
2018-11-07T22:27:29.589Z,95218.00
2018-11-07T22:30:00.853Z,95225.00
2018-11-07T22:32:32.057Z,95230.00
2018-11-07T22:35:03.133Z,95232.00
2018-11-07T22:37:34.225Z,95232.00
2018-11-07T22:40:05.840Z,95232.00
2018-11-07T22:42:37.924Z,95227.00
2018-11-07T22:45:09.606Z,95236.00
2018-11-07T22:47:40.929Z,95239.00
2018-11-07T22:50:13.665Z,95239.00
2018-11-07T22:52:45.692Z,95243.00
2018-11-07T22:55:16.724Z,95253.00
2018-11-07T22:57:47.893Z,95256.00
2018-11-07T23:00:24.653Z,95255.00
2018-11-07T23:02:56.578Z,95259.00
2018-11-07T23:05:27.673Z,95259.00
2018-11-07T23:07:58.695Z,95260.00
2018-11-07T23:10:29.733Z,95255.00
2018-11-07T23:13:00.787Z,95260.00
2018-11-07T23:15:36.950Z,95256.00
2018-11-07T23:18:08.127Z,95261.00
2018-11-07T23:20:39.226Z,95266.00
2018-11-07T23:23:10.383Z,95269.00
2018-11-07T23:25:41.245Z,95275.00
2018-11-07T23:28:12.373Z,95280.00
2018-11-07T23:30:43.236Z,95281.00
2018-11-07T23:33:14.233Z,95284.00
2018-11-07T23:35:45.125Z,95287.00
2018-11-07T23:38:16.073Z,95288.00
2018-11-07T23:40:47.071Z,95293.00
2018-11-07T23:43:18.033Z,95301.00
2018-11-07T23:45:48.985Z,95301.00
2018-11-07T23:48:19.973Z,95305.00
2018-11-07T23:50:50.873Z,95308.00
2018-11-07T23:53:21.753Z,95313.00
2018-11-07T23:55:53.116Z,95315.00
2018-11-07T23:58:24.076Z,95325.00
